sensor_id;sensor_type;location;lat;lon;timestamp;P1;durP1;ratioP1;P2;durP2;ratioP2
51288;SDS011;37372;52.294;5.152;2022-12-16T00:01:59;50.83;;;26.90;;
51288;SDS011;37372;52.294;5.152;2022-12-16T00:04:24;45.50;;;25.52;;
51288;SDS011;37372;52.294;5.152;2022-12-16T00:06:50;40.33;;;23.58;;
51288;SDS011;37372;52.294;5.152;2022-12-16T00:09:15;41.75;;;22.75;;
51288;SDS011;37372;52.294;5.152;2022-12-16T00:11:41;36.08;;;19.45;;
51288;SDS011;37372;52.294;5.152;2022-12-16T00:14:06;17.35;;;11.27;;
51288;SDS011;37372;52.294;5.152;2022-12-16T00:16:31;20.13;;;11.60;;
51288;SDS011;37372;52.294;5.152;2022-12-16T00:18:57;13.32;;;7.28;;
51288;SDS011;37372;52.294;5.152;2022-12-16T00:21:22;10.55;;;5.30;;
51288;SDS011;37372;52.294;5.152;2022-12-16T00:23:52;12.40;;;5.57;;
51288;SDS011;37372;52.294;5.152;2022-12-16T00:26:18;13.10;;;4.80;;
51288;SDS011;37372;52.294;5.152;2022-12-16T00:28:43;10.18;;;4.03;;
51288;SDS011;37372;52.294;5.152;2022-12-16T00:31:09;8.40;;;3.72;;
51288;SDS011;37372;52.294;5.152;2022-12-16T00:33:35;9.23;;;3.28;;
51288;SDS011;37372;52.294;5.152;2022-12-16T00:36:00;13.02;;;3.65;;
51288;SDS011;37372;52.294;5.152;2022-12-16T00:38:26;6.38;;;3.42;;
51288;SDS011;37372;52.294;5.152;2022-12-16T00:40:51;7.15;;;3.50;;
51288;SDS011;37372;52.294;5.152;2022-12-16T00:43:16;7.78;;;3.17;;
51288;SDS011;37372;52.294;5.152;2022-12-16T00:45:42;9.88;;;3.17;;
51288;SDS011;37372;52.294;5.152;2022-12-16T00:48:07;12.45;;;3.00;;
51288;SDS011;37372;52.294;5.152;2022-12-16T00:50:33;8.73;;;3.20;;
51288;SDS011;37372;52.294;5.152;2022-12-16T00:52:59;10.88;;;3.28;;
51288;SDS011;37372;52.294;5.152;2022-12-16T00:55:24;13.00;;;4.38;;
51288;SDS011;37372;52.294;5.152;2022-12-16T00:57:50;13.20;;;3.42;;
51288;SDS011;37372;52.294;5.152;2022-12-16T01:00:16;9.23;;;3.20;;
51288;SDS011;37372;52.294;5.152;2022-12-16T01:02:42;14.23;;;4.57;;
51288;SDS011;37372;52.294;5.152;2022-12-16T01:05:09;9.23;;;4.35;;
51288;SDS011;37372;52.294;5.152;2022-12-16T01:07:36;14.18;;;4.82;;
51288;SDS011;37372;52.294;5.152;2022-12-16T01:10:01;11.70;;;4.30;;
51288;SDS011;37372;52.294;5.152;2022-12-16T01:12:27;9.82;;;3.55;;
51288;SDS011;37372;52.294;5.152;2022-12-16T01:14:53;14.13;;;5.40;;
51288;SDS011;37372;52.294;5.152;2022-12-16T01:17:18;14.52;;;4.60;;
51288;SDS011;37372;52.294;5.152;2022-12-16T01:19:43;11.38;;;3.60;;
51288;SDS011;37372;52.294;5.152;2022-12-16T01:22:09;15.93;;;4.45;;
51288;SDS011;37372;52.294;5.152;2022-12-16T01:24:35;12.02;;;3.65;;
51288;SDS011;37372;52.294;5.152;2022-12-16T01:27:00;9.80;;;3.65;;
51288;SDS011;37372;52.294;5.152;2022-12-16T01:29:26;13.77;;;4.18;;
51288;SDS011;37372;52.294;5.152;2022-12-16T01:31:51;9.98;;;4.10;;
51288;SDS011;37372;52.294;5.152;2022-12-16T01:34:16;10.20;;;4.03;;
51288;SDS011;37372;52.294;5.152;2022-12-16T01:36:42;13.43;;;3.72;;
51288;SDS011;37372;52.294;5.152;2022-12-16T01:39:09;8.40;;;4.30;;
51288;SDS011;37372;52.294;5.152;2022-12-16T01:41:35;9.20;;;3.92;;
51288;SDS011;37372;52.294;5.152;2022-12-16T01:44:19;13.00;;;4.22;;
51288;SDS011;37372;52.294;5.152;2022-12-16T01:46:52;12.60;;;5.38;;
51288;SDS011;37372;52.294;5.152;2022-12-16T01:49:28;8.75;;;4.75;;
51288;SDS011;37372;52.294;5.152;2022-12-16T01:52:02;10.50;;;4.57;;
51288;SDS011;37372;52.294;5.152;2022-12-16T01:54:36;11.93;;;5.15;;
51288;SDS011;37372;52.294;5.152;2022-12-16T01:57:07;15.73;;;5.30;;
51288;SDS011;37372;52.294;5.152;2022-12-16T01:59:36;12.18;;;4.65;;
51288;SDS011;37372;52.294;5.152;2022-12-16T02:02:05;9.07;;;5.47;;
51288;SDS011;37372;52.294;5.152;2022-12-16T02:04:31;14.10;;;5.80;;
51288;SDS011;37372;52.294;5.152;2022-12-16T02:06:57;11.85;;;5.35;;
51288;SDS011;37372;52.294;5.152;2022-12-16T02:09:24;16.30;;;4.70;;
51288;SDS011;37372;52.294;5.152;2022-12-16T02:34:43;11.82;;;5.45;;
51288;SDS011;37372;52.294;5.152;2022-12-16T02:37:42;10.27;;;5.93;;
51288;SDS011;37372;52.294;5.152;2022-12-16T02:42:53;11.88;;;5.25;;
51288;SDS011;37372;52.294;5.152;2022-12-16T02:45:26;13.40;;;6.35;;
51288;SDS011;37372;52.294;5.152;2022-12-16T02:47:53;8.77;;;4.82;;
51288;SDS011;37372;52.294;5.152;2022-12-16T02:50:20;13.55;;;6.65;;
51288;SDS011;37372;52.294;5.152;2022-12-16T02:52:49;13.07;;;5.70;;
51288;SDS011;37372;52.294;5.152;2022-12-16T02:55:16;13.02;;;6.20;;
51288;SDS011;37372;52.294;5.152;2022-12-16T03:00:33;11.05;;;5.75;;
51288;SDS011;37372;52.294;5.152;2022-12-16T03:03:12;13.10;;;5.47;;
51288;SDS011;37372;52.294;5.152;2022-12-16T03:05:48;13.02;;;5.50;;
51288;SDS011;37372;52.294;5.152;2022-12-16T03:08:18;9.45;;;4.80;;
51288;SDS011;37372;52.294;5.152;2022-12-16T03:10:53;13.95;;;6.25;;
51288;SDS011;37372;52.294;5.152;2022-12-16T03:13:21;11.70;;;5.55;;
51288;SDS011;37372;52.294;5.152;2022-12-16T03:15:49;11.75;;;5.13;;
51288;SDS011;37372;52.294;5.152;2022-12-16T03:18:17;16.40;;;5.03;;
51288;SDS011;37372;52.294;5.152;2022-12-16T03:20:45;7.00;;;4.18;;
51288;SDS011;37372;52.294;5.152;2022-12-16T03:23:16;8.48;;;3.85;;
51288;SDS011;37372;52.294;5.152;2022-12-16T03:25:46;8.23;;;3.75;;
51288;SDS011;37372;52.294;5.152;2022-12-16T03:28:25;9.50;;;3.97;;
51288;SDS011;37372;52.294;5.152;2022-12-16T03:31:02;13.30;;;4.72;;
51288;SDS011;37372;52.294;5.152;2022-12-16T03:33:47;11.52;;;3.05;;
51288;SDS011;37372;52.294;5.152;2022-12-16T03:36:19;13.38;;;3.60;;
51288;SDS011;37372;52.294;5.152;2022-12-16T03:38:46;10.63;;;2.83;;
51288;SDS011;37372;52.294;5.152;2022-12-16T03:41:14;6.90;;;2.83;;
51288;SDS011;37372;52.294;5.152;2022-12-16T03:43:41;8.30;;;3.05;;
51288;SDS011;37372;52.294;5.152;2022-12-16T03:46:07;15.63;;;3.60;;
51288;SDS011;37372;52.294;5.152;2022-12-16T03:48:34;10.60;;;3.15;;
51288;SDS011;37372;52.294;5.152;2022-12-16T03:51:00;9.68;;;2.90;;
51288;SDS011;37372;52.294;5.152;2022-12-16T03:53:26;7.13;;;2.30;;
51288;SDS011;37372;52.294;5.152;2022-12-16T03:55:52;7.43;;;2.90;;
51288;SDS011;37372;52.294;5.152;2022-12-16T03:58:18;8.25;;;2.45;;
51288;SDS011;37372;52.294;5.152;2022-12-16T04:00:44;9.52;;;3.55;;
51288;SDS011;37372;52.294;5.152;2022-12-16T04:03:10;7.13;;;3.25;;
51288;SDS011;37372;52.294;5.152;2022-12-16T04:05:35;7.88;;;2.72;;
51288;SDS011;37372;52.294;5.152;2022-12-16T04:08:01;10.60;;;3.05;;
51288;SDS011;37372;52.294;5.152;2022-12-16T04:10:26;6.60;;;2.05;;
51288;SDS011;37372;52.294;5.152;2022-12-16T04:13:10;9.63;;;2.97;;
51288;SDS011;37372;52.294;5.152;2022-12-16T04:15:54;9.10;;;2.30;;
51288;SDS011;37372;52.294;5.152;2022-12-16T04:18:39;15.70;;;3.13;;
51288;SDS011;37372;52.294;5.152;2022-12-16T04:21:23;7.32;;;3.20;;
51288;SDS011;37372;52.294;5.152;2022-12-16T04:24:11;6.75;;;2.47;;
51288;SDS011;37372;52.294;5.152;2022-12-16T04:26:43;8.32;;;3.08;;
51288;SDS011;37372;52.294;5.152;2022-12-16T04:29:27;7.43;;;2.90;;
51288;SDS011;37372;52.294;5.152;2022-12-16T04:31:53;8.70;;;2.63;;
51288;SDS011;37372;52.294;5.152;2022-12-16T04:34:18;8.43;;;2.60;;
51288;SDS011;37372;52.294;5.152;2022-12-16T04:36:52;7.20;;;2.58;;
51288;SDS011;37372;52.294;5.152;2022-12-16T04:39:37;11.10;;;3.35;;
51288;SDS011;37372;52.294;5.152;2022-12-16T04:42:21;8.55;;;2.67;;
51288;SDS011;37372;52.294;5.152;2022-12-16T04:45:05;6.22;;;2.67;;
51288;SDS011;37372;52.294;5.152;2022-12-16T04:47:49;5.93;;;2.88;;
51288;SDS011;37372;52.294;5.152;2022-12-16T04:50:35;8.10;;;3.20;;
51288;SDS011;37372;52.294;5.152;2022-12-16T04:53:19;11.25;;;3.42;;
51288;SDS011;37372;52.294;5.152;2022-12-16T04:56:03;22.27;;;3.55;;
51288;SDS011;37372;52.294;5.152;2022-12-16T04:58:47;4.90;;;2.17;;
51288;SDS011;37372;52.294;5.152;2022-12-16T05:01:31;13.15;;;3.67;;
51288;SDS011;37372;52.294;5.152;2022-12-16T05:04:15;8.30;;;2.97;;
51288;SDS011;37372;52.294;5.152;2022-12-16T05:06:59;13.70;;;3.50;;
51288;SDS011;37372;52.294;5.152;2022-12-16T05:09:43;8.35;;;3.10;;
51288;SDS011;37372;52.294;5.152;2022-12-16T05:12:27;8.43;;;3.13;;
51288;SDS011;37372;52.294;5.152;2022-12-16T05:15:11;6.10;;;2.65;;
51288;SDS011;37372;52.294;5.152;2022-12-16T05:17:55;9.18;;;3.30;;
51288;SDS011;37372;52.294;5.152;2022-12-16T05:20:39;10.68;;;3.40;;
51288;SDS011;37372;52.294;5.152;2022-12-16T05:23:23;7.35;;;3.55;;
51288;SDS011;37372;52.294;5.152;2022-12-16T05:26:07;10.45;;;3.90;;
51288;SDS011;37372;52.294;5.152;2022-12-16T05:28:51;9.75;;;3.60;;
51288;SDS011;37372;52.294;5.152;2022-12-16T05:31:35;7.75;;;3.17;;
51288;SDS011;37372;52.294;5.152;2022-12-16T05:34:20;9.50;;;3.70;;
51288;SDS011;37372;52.294;5.152;2022-12-16T05:37:04;9.00;;;3.63;;
51288;SDS011;37372;52.294;5.152;2022-12-16T05:39:48;9.27;;;3.92;;
51288;SDS011;37372;52.294;5.152;2022-12-16T05:42:32;7.63;;;3.47;;
51288;SDS011;37372;52.294;5.152;2022-12-16T05:45:16;8.05;;;3.65;;
51288;SDS011;37372;52.294;5.152;2022-12-16T05:48:00;8.05;;;3.40;;
51288;SDS011;37372;52.294;5.152;2022-12-16T05:50:43;7.13;;;2.67;;
51288;SDS011;37372;52.294;5.152;2022-12-16T05:53:27;5.80;;;2.75;;
51288;SDS011;37372;52.294;5.152;2022-12-16T05:56:11;11.82;;;2.80;;
51288;SDS011;37372;52.294;5.152;2022-12-16T05:58:55;10.55;;;2.88;;
51288;SDS011;37372;52.294;5.152;2022-12-16T06:01:39;9.82;;;3.45;;
51288;SDS011;37372;52.294;5.152;2022-12-16T06:04:23;11.40;;;2.75;;
51288;SDS011;37372;52.294;5.152;2022-12-16T06:07:07;9.07;;;3.47;;
51288;SDS011;37372;52.294;5.152;2022-12-16T06:09:51;9.45;;;4.10;;
51288;SDS011;37372;52.294;5.152;2022-12-16T06:12:35;8.70;;;3.72;;
51288;SDS011;37372;52.294;5.152;2022-12-16T06:15:19;11.25;;;3.72;;
51288;SDS011;37372;52.294;5.152;2022-12-16T06:18:03;12.07;;;4.78;;
51288;SDS011;37372;52.294;5.152;2022-12-16T06:20:47;11.85;;;3.92;;
51288;SDS011;37372;52.294;5.152;2022-12-16T06:23:31;9.98;;;3.97;;
51288;SDS011;37372;52.294;5.152;2022-12-16T06:26:15;11.02;;;3.40;;
51288;SDS011;37372;52.294;5.152;2022-12-16T06:28:59;8.93;;;3.22;;
51288;SDS011;37372;52.294;5.152;2022-12-16T06:31:43;11.80;;;3.75;;
51288;SDS011;37372;52.294;5.152;2022-12-16T06:34:27;11.82;;;3.42;;
51288;SDS011;37372;52.294;5.152;2022-12-16T06:37:11;18.10;;;4.50;;
51288;SDS011;37372;52.294;5.152;2022-12-16T06:39:55;12.20;;;5.13;;
51288;SDS011;37372;52.294;5.152;2022-12-16T06:42:39;6.72;;;4.18;;
51288;SDS011;37372;52.294;5.152;2022-12-16T06:45:23;8.07;;;3.25;;
51288;SDS011;37372;52.294;5.152;2022-12-16T06:48:08;7.78;;;3.33;;
51288;SDS011;37372;52.294;5.152;2022-12-16T06:50:52;10.07;;;4.38;;
51288;SDS011;37372;52.294;5.152;2022-12-16T06:53:36;10.13;;;3.80;;
51288;SDS011;37372;52.294;5.152;2022-12-16T06:56:20;6.63;;;3.30;;
51288;SDS011;37372;52.294;5.152;2022-12-16T06:59:04;17.55;;;4.45;;
51288;SDS011;37372;52.294;5.152;2022-12-16T07:01:48;9.30;;;3.30;;
51288;SDS011;37372;52.294;5.152;2022-12-16T07:04:32;19.08;;;5.20;;
51288;SDS011;37372;52.294;5.152;2022-12-16T07:07:16;12.15;;;4.78;;
51288;SDS011;37372;52.294;5.152;2022-12-16T07:10:00;10.50;;;4.18;;
51288;SDS011;37372;52.294;5.152;2022-12-16T07:12:44;9.35;;;3.33;;
51288;SDS011;37372;52.294;5.152;2022-12-16T07:15:28;10.23;;;4.60;;
51288;SDS011;37372;52.294;5.152;2022-12-16T07:18:11;13.73;;;4.07;;
51288;SDS011;37372;52.294;5.152;2022-12-16T07:20:55;10.32;;;4.18;;
51288;SDS011;37372;52.294;5.152;2022-12-16T07:23:50;11.45;;;4.38;;
51288;SDS011;37372;52.294;5.152;2022-12-16T07:26:34;10.75;;;3.67;;
51288;SDS011;37372;52.294;5.152;2022-12-16T07:29:18;13.52;;;3.58;;
51288;SDS011;37372;52.294;5.152;2022-12-16T07:32:02;10.00;;;3.55;;
51288;SDS011;37372;52.294;5.152;2022-12-16T07:34:46;13.85;;;4.25;;
51288;SDS011;37372;52.294;5.152;2022-12-16T07:37:30;13.38;;;4.70;;
51288;SDS011;37372;52.294;5.152;2022-12-16T07:40:14;12.52;;;4.85;;
51288;SDS011;37372;52.294;5.152;2022-12-16T07:42:58;9.68;;;3.97;;
51288;SDS011;37372;52.294;5.152;2022-12-16T07:45:42;11.13;;;4.60;;
51288;SDS011;37372;52.294;5.152;2022-12-16T07:48:26;9.70;;;3.47;;
51288;SDS011;37372;52.294;5.152;2022-12-16T07:51:10;10.40;;;3.53;;
51288;SDS011;37372;52.294;5.152;2022-12-16T07:53:54;10.32;;;5.70;;
51288;SDS011;37372;52.294;5.152;2022-12-16T07:56:38;8.82;;;3.92;;
51288;SDS011;37372;52.294;5.152;2022-12-16T07:59:22;10.38;;;4.15;;
51288;SDS011;37372;52.294;5.152;2022-12-16T08:02:08;8.63;;;4.57;;
51288;SDS011;37372;52.294;5.152;2022-12-16T08:04:52;10.60;;;4.35;;
51288;SDS011;37372;52.294;5.152;2022-12-16T08:07:38;10.20;;;3.55;;
51288;SDS011;37372;52.294;5.152;2022-12-16T08:10:23;7.22;;;3.42;;
51288;SDS011;37372;52.294;5.152;2022-12-16T08:13:07;10.73;;;2.75;;
51288;SDS011;37372;52.294;5.152;2022-12-16T08:15:51;8.43;;;2.95;;
51288;SDS011;37372;52.294;5.152;2022-12-16T08:18:35;6.97;;;3.38;;
51288;SDS011;37372;52.294;5.152;2022-12-16T08:21:19;8.95;;;3.85;;
51288;SDS011;37372;52.294;5.152;2022-12-16T08:24:03;12.48;;;4.00;;
51288;SDS011;37372;52.294;5.152;2022-12-16T08:26:47;8.02;;;3.40;;
51288;SDS011;37372;52.294;5.152;2022-12-16T08:29:31;8.38;;;3.95;;
51288;SDS011;37372;52.294;5.152;2022-12-16T08:32:15;9.93;;;3.65;;
51288;SDS011;37372;52.294;5.152;2022-12-16T08:34:59;11.65;;;4.60;;
51288;SDS011;37372;52.294;5.152;2022-12-16T08:37:44;8.32;;;3.20;;
51288;SDS011;37372;52.294;5.152;2022-12-16T08:40:29;8.23;;;3.50;;
51288;SDS011;37372;52.294;5.152;2022-12-16T08:43:13;8.35;;;4.00;;
51288;SDS011;37372;52.294;5.152;2022-12-16T08:45:57;10.63;;;3.55;;
51288;SDS011;37372;52.294;5.152;2022-12-16T08:48:41;9.60;;;3.58;;
51288;SDS011;37372;52.294;5.152;2022-12-16T08:51:26;5.18;;;2.50;;
51288;SDS011;37372;52.294;5.152;2022-12-16T08:54:10;5.22;;;2.45;;
51288;SDS011;37372;52.294;5.152;2022-12-16T08:56:54;6.50;;;3.03;;
51288;SDS011;37372;52.294;5.152;2022-12-16T08:59:38;10.65;;;4.20;;
51288;SDS011;37372;52.294;5.152;2022-12-16T09:02:22;15.15;;;3.58;;
51288;SDS011;37372;52.294;5.152;2022-12-16T09:05:07;11.68;;;5.35;;
51288;SDS011;37372;52.294;5.152;2022-12-16T09:07:51;12.88;;;5.18;;
51288;SDS011;37372;52.294;5.152;2022-12-16T09:10:35;11.95;;;4.75;;
51288;SDS011;37372;52.294;5.152;2022-12-16T09:13:19;10.70;;;4.85;;
51288;SDS011;37372;52.294;5.152;2022-12-16T09:16:03;7.18;;;3.40;;
51288;SDS011;37372;52.294;5.152;2022-12-16T09:18:47;9.02;;;4.20;;
51288;SDS011;37372;52.294;5.152;2022-12-16T09:21:31;11.70;;;4.07;;
51288;SDS011;37372;52.294;5.152;2022-12-16T09:24:16;13.00;;;5.15;;
51288;SDS011;37372;52.294;5.152;2022-12-16T09:27:00;9.40;;;3.42;;
51288;SDS011;37372;52.294;5.152;2022-12-16T09:29:44;8.97;;;3.77;;
51288;SDS011;37372;52.294;5.152;2022-12-16T09:32:29;12.52;;;3.50;;
51288;SDS011;37372;52.294;5.152;2022-12-16T09:37:57;10.63;;;3.17;;
51288;SDS011;37372;52.294;5.152;2022-12-16T09:40:41;7.82;;;3.42;;
51288;SDS011;37372;52.294;5.152;2022-12-16T09:43:35;11.55;;;4.25;;
51288;SDS011;37372;52.294;5.152;2022-12-16T09:46:47;10.63;;;3.63;;
51288;SDS011;37372;52.294;5.152;2022-12-16T09:52:31;10.15;;;3.70;;
51288;SDS011;37372;52.294;5.152;2022-12-16T09:55:22;10.82;;;4.05;;
51288;SDS011;37372;52.294;5.152;2022-12-16T09:58:09;10.75;;;4.28;;
51288;SDS011;37372;52.294;5.152;2022-12-16T10:00:55;10.88;;;3.63;;
51288;SDS011;37372;52.294;5.152;2022-12-16T10:03:40;7.90;;;4.13;;
51288;SDS011;37372;52.294;5.152;2022-12-16T10:09:29;10.27;;;4.07;;
51288;SDS011;37372;52.294;5.152;2022-12-16T10:12:25;19.05;;;4.63;;
51288;SDS011;37372;52.294;5.152;2022-12-16T10:15:28;15.90;;;4.50;;
51288;SDS011;37372;52.294;5.152;2022-12-16T10:18:26;15.15;;;4.88;;
51288;SDS011;37372;52.294;5.152;2022-12-16T10:21:22;9.07;;;3.92;;
51288;SDS011;37372;52.294;5.152;2022-12-16T10:27:20;12.15;;;4.43;;
51288;SDS011;37372;52.294;5.152;2022-12-16T10:30:13;9.55;;;4.15;;
51288;SDS011;37372;52.294;5.152;2022-12-16T10:32:57;7.93;;;4.43;;
51288;SDS011;37372;52.294;5.152;2022-12-16T10:35:50;11.75;;;4.03;;
51288;SDS011;37372;52.294;5.152;2022-12-16T10:38:37;8.82;;;4.20;;
51288;SDS011;37372;52.294;5.152;2022-12-16T10:41:25;9.68;;;5.68;;
51288;SDS011;37372;52.294;5.152;2022-12-16T10:44:15;11.88;;;5.63;;
51288;SDS011;37372;52.294;5.152;2022-12-16T10:47:01;8.13;;;4.70;;
51288;SDS011;37372;52.294;5.152;2022-12-16T10:49:52;8.15;;;5.00;;
51288;SDS011;37372;52.294;5.152;2022-12-16T10:52:55;16.38;;;6.30;;
51288;SDS011;37372;52.294;5.152;2022-12-16T11:01:20;14.20;;;7.47;;
51288;SDS011;37372;52.294;5.152;2022-12-16T11:13:20;17.38;;;8.32;;
51288;SDS011;37372;52.294;5.152;2022-12-16T11:16:15;17.85;;;8.70;;
51288;SDS011;37372;52.294;5.152;2022-12-16T11:18:59;16.90;;;8.18;;
51288;SDS011;37372;52.294;5.152;2022-12-16T11:24:29;17.45;;;7.43;;
51288;SDS011;37372;52.294;5.152;2022-12-16T11:30:24;13.43;;;8.10;;
51288;SDS011;37372;52.294;5.152;2022-12-16T11:33:12;18.70;;;9.73;;
51288;SDS011;37372;52.294;5.152;2022-12-16T11:36:15;20.85;;;11.82;;
51288;SDS011;37372;52.294;5.152;2022-12-16T11:39:04;21.60;;;10.32;;
51288;SDS011;37372;52.294;5.152;2022-12-16T11:41:53;21.75;;;10.68;;
51288;SDS011;37372;52.294;5.152;2022-12-16T11:44:40;19.95;;;11.18;;
51288;SDS011;37372;52.294;5.152;2022-12-16T11:50:33;21.03;;;10.87;;
51288;SDS011;37372;52.294;5.152;2022-12-16T11:53:30;22.20;;;13.40;;
51288;SDS011;37372;52.294;5.152;2022-12-16T11:56:22;21.67;;;12.18;;
51288;SDS011;37372;52.294;5.152;2022-12-16T11:59:11;20.38;;;11.82;;
51288;SDS011;37372;52.294;5.152;2022-12-16T12:02:11;24.52;;;12.15;;
51288;SDS011;37372;52.294;5.152;2022-12-16T12:05:01;27.80;;;12.95;;
51288;SDS011;37372;52.294;5.152;2022-12-16T12:13:35;23.60;;;14.15;;
51288;SDS011;37372;52.294;5.152;2022-12-16T12:19:28;22.95;;;12.82;;
51288;SDS011;37372;52.294;5.152;2022-12-16T12:28:13;23.38;;;13.43;;
51288;SDS011;37372;52.294;5.152;2022-12-16T12:31:49;22.42;;;12.73;;
51288;SDS011;37372;52.294;5.152;2022-12-16T12:43:02;20.45;;;11.57;;
51288;SDS011;37372;52.294;5.152;2022-12-16T12:45:57;20.17;;;12.00;;
51288;SDS011;37372;52.294;5.152;2022-12-16T12:48:56;21.55;;;11.43;;
51288;SDS011;37372;52.294;5.152;2022-12-16T12:55:00;22.08;;;13.13;;
51288;SDS011;37372;52.294;5.152;2022-12-16T12:57:51;21.13;;;12.75;;
51288;SDS011;37372;52.294;5.152;2022-12-16T13:00:42;22.63;;;13.18;;
51288;SDS011;37372;52.294;5.152;2022-12-16T13:03:41;29.33;;;13.23;;
51288;SDS011;37372;52.294;5.152;2022-12-16T13:06:30;22.95;;;12.75;;
51288;SDS011;37372;52.294;5.152;2022-12-16T13:09:36;24.17;;;13.18;;
51288;SDS011;37372;52.294;5.152;2022-12-16T13:12:23;20.40;;;11.75;;
51288;SDS011;37372;52.294;5.152;2022-12-16T13:15:17;23.63;;;13.15;;
51288;SDS011;37372;52.294;5.152;2022-12-16T13:24:19;22.83;;;12.32;;
51288;SDS011;37372;52.294;5.152;2022-12-16T13:27:19;19.88;;;12.65;;
51288;SDS011;37372;52.294;5.152;2022-12-16T13:30:17;28.27;;;15.02;;
51288;SDS011;37372;52.294;5.152;2022-12-16T13:33:05;29.77;;;16.25;;
51288;SDS011;37372;52.294;5.152;2022-12-16T13:36:02;28.67;;;16.70;;
51288;SDS011;37372;52.294;5.152;2022-12-16T13:38:46;29.65;;;15.98;;
51288;SDS011;37372;52.294;5.152;2022-12-16T13:48:15;26.75;;;15.13;;
51288;SDS011;37372;52.294;5.152;2022-12-16T13:50:37;32.47;;;16.08;;
51288;SDS011;37372;52.294;5.152;2022-12-16T13:53:24;26.05;;;15.82;;
51288;SDS011;37372;52.294;5.152;2022-12-16T13:56:11;22.38;;;13.38;;
51288;SDS011;37372;52.294;5.152;2022-12-16T13:58:59;21.77;;;13.02;;
51288;SDS011;37372;52.294;5.152;2022-12-16T14:01:48;21.67;;;12.63;;
51288;SDS011;37372;52.294;5.152;2022-12-16T14:04:38;24.63;;;10.95;;
51288;SDS011;37372;52.294;5.152;2022-12-16T14:07:26;16.65;;;9.98;;
51288;SDS011;37372;52.294;5.152;2022-12-16T14:21:50;17.95;;;8.90;;
51288;SDS011;37372;52.294;5.152;2022-12-16T14:24:38;15.82;;;8.15;;
51288;SDS011;37372;52.294;5.152;2022-12-16T14:27:23;16.77;;;7.30;;
51288;SDS011;37372;52.294;5.152;2022-12-16T14:33:22;14.60;;;8.23;;
51288;SDS011;37372;52.294;5.152;2022-12-16T14:39:08;14.40;;;8.48;;
51288;SDS011;37372;52.294;5.152;2022-12-16T14:41:53;40.10;;;8.88;;
51288;SDS011;37372;52.294;5.152;2022-12-16T14:44:37;15.10;;;8.07;;
51288;SDS011;37372;52.294;5.152;2022-12-16T14:47:21;17.88;;;8.10;;
51288;SDS011;37372;52.294;5.152;2022-12-16T14:50:20;11.02;;;6.28;;
51288;SDS011;37372;52.294;5.152;2022-12-16T14:53:16;10.98;;;6.47;;
51288;SDS011;37372;52.294;5.152;2022-12-16T14:56:12;9.35;;;5.85;;
51288;SDS011;37372;52.294;5.152;2022-12-16T14:59:21;11.27;;;6.35;;
51288;SDS011;37372;52.294;5.152;2022-12-16T15:02:20;10.47;;;7.10;;
51288;SDS011;37372;52.294;5.152;2022-12-16T15:05:15;10.95;;;6.47;;
51288;SDS011;37372;52.294;5.152;2022-12-16T15:07:59;10.13;;;6.20;;
51288;SDS011;37372;52.294;5.152;2022-12-16T15:10:44;10.40;;;5.43;;
51288;SDS011;37372;52.294;5.152;2022-12-16T15:13:45;12.85;;;6.22;;
51288;SDS011;37372;52.294;5.152;2022-12-16T15:16:35;9.15;;;5.18;;
51288;SDS011;37372;52.294;5.152;2022-12-16T15:19:20;11.75;;;5.28;;
51288;SDS011;37372;52.294;5.152;2022-12-16T15:22:12;10.70;;;5.63;;
51288;SDS011;37372;52.294;5.152;2022-12-16T15:24:57;8.50;;;5.30;;
51288;SDS011;37372;52.294;5.152;2022-12-16T15:27:41;13.10;;;6.55;;
51288;SDS011;37372;52.294;5.152;2022-12-16T15:30:39;12.98;;;7.38;;
51288;SDS011;37372;52.294;5.152;2022-12-16T15:33:28;13.35;;;6.30;;
51288;SDS011;37372;52.294;5.152;2022-12-16T15:36:27;12.05;;;7.75;;
51288;SDS011;37372;52.294;5.152;2022-12-16T15:39:20;17.50;;;7.65;;
51288;SDS011;37372;52.294;5.152;2022-12-16T15:42:33;12.38;;;7.40;;
51288;SDS011;37372;52.294;5.152;2022-12-16T15:45:28;14.35;;;7.25;;
51288;SDS011;37372;52.294;5.152;2022-12-16T15:50:57;16.38;;;8.95;;
51288;SDS011;37372;52.294;5.152;2022-12-16T15:53:41;20.77;;;9.60;;
51288;SDS011;37372;52.294;5.152;2022-12-16T15:56:31;17.17;;;9.20;;
51288;SDS011;37372;52.294;5.152;2022-12-16T15:59:28;16.40;;;9.23;;
51288;SDS011;37372;52.294;5.152;2022-12-16T16:02:33;18.15;;;8.13;;
51288;SDS011;37372;52.294;5.152;2022-12-16T16:05:17;16.17;;;8.80;;
51288;SDS011;37372;52.294;5.152;2022-12-16T16:08:03;14.90;;;8.57;;
51288;SDS011;37372;52.294;5.152;2022-12-16T16:10:47;16.07;;;9.93;;
51288;SDS011;37372;52.294;5.152;2022-12-16T16:13:31;17.65;;;8.73;;
51288;SDS011;37372;52.294;5.152;2022-12-16T16:16:16;20.75;;;9.55;;
51288;SDS011;37372;52.294;5.152;2022-12-16T16:19:00;19.90;;;9.90;;
51288;SDS011;37372;52.294;5.152;2022-12-16T16:21:44;20.42;;;11.15;;
51288;SDS011;37372;52.294;5.152;2022-12-16T16:24:28;21.80;;;11.27;;
51288;SDS011;37372;52.294;5.152;2022-12-16T16:27:13;17.97;;;10.90;;
51288;SDS011;37372;52.294;5.152;2022-12-16T16:29:58;18.73;;;11.38;;
51288;SDS011;37372;52.294;5.152;2022-12-16T16:35:28;21.70;;;10.52;;
51288;SDS011;37372;52.294;5.152;2022-12-16T16:38:16;19.33;;;11.43;;
51288;SDS011;37372;52.294;5.152;2022-12-16T16:41:00;19.70;;;12.32;;
51288;SDS011;37372;52.294;5.152;2022-12-16T16:43:44;23.33;;;13.32;;
51288;SDS011;37372;52.294;5.152;2022-12-16T16:46:38;19.75;;;11.32;;
51288;SDS011;37372;52.294;5.152;2022-12-16T16:49:40;17.77;;;10.95;;
51288;SDS011;37372;52.294;5.152;2022-12-16T16:52:27;21.95;;;11.75;;
51288;SDS011;37372;52.294;5.152;2022-12-16T16:55:15;24.58;;;14.30;;
51288;SDS011;37372;52.294;5.152;2022-12-16T16:58:03;24.55;;;13.05;;
51288;SDS011;37372;52.294;5.152;2022-12-16T17:00:50;26.00;;;15.60;;
51288;SDS011;37372;52.294;5.152;2022-12-16T17:03:33;27.15;;;14.13;;
51288;SDS011;37372;52.294;5.152;2022-12-16T17:06:17;24.02;;;13.95;;
51288;SDS011;37372;52.294;5.152;2022-12-16T17:09:01;23.67;;;12.13;;
51288;SDS011;37372;52.294;5.152;2022-12-16T17:11:45;26.38;;;13.45;;
51288;SDS011;37372;52.294;5.152;2022-12-16T17:14:29;34.05;;;19.30;;
51288;SDS011;37372;52.294;5.152;2022-12-16T17:17:13;72.53;;;37.80;;
51288;SDS011;37372;52.294;5.152;2022-12-16T17:19:57;136.75;;;78.65;;
51288;SDS011;37372;52.294;5.152;2022-12-16T17:22:41;197.45;;;110.53;;
51288;SDS011;37372;52.294;5.152;2022-12-16T17:25:25;151.40;;;88.13;;
51288;SDS011;37372;52.294;5.152;2022-12-16T17:28:09;128.73;;;73.88;;
51288;SDS011;37372;52.294;5.152;2022-12-16T17:30:53;109.82;;;64.68;;
51288;SDS011;37372;52.294;5.152;2022-12-16T17:33:37;75.32;;;44.60;;
51288;SDS011;37372;52.294;5.152;2022-12-16T17:36:21;55.80;;;32.63;;
51288;SDS011;37372;52.294;5.152;2022-12-16T17:39:05;44.40;;;25.38;;
51288;SDS011;37372;52.294;5.152;2022-12-16T17:41:49;48.58;;;26.15;;
51288;SDS011;37372;52.294;5.152;2022-12-16T17:44:33;43.13;;;24.65;;
51288;SDS011;37372;52.294;5.152;2022-12-16T17:47:17;48.63;;;26.15;;
51288;SDS011;37372;52.294;5.152;2022-12-16T17:50:02;49.70;;;26.33;;
51288;SDS011;37372;52.294;5.152;2022-12-16T17:52:46;43.42;;;26.25;;
51288;SDS011;37372;52.294;5.152;2022-12-16T17:55:31;44.95;;;24.90;;
51288;SDS011;37372;52.294;5.152;2022-12-16T17:58:16;41.30;;;23.27;;
51288;SDS011;37372;52.294;5.152;2022-12-16T18:01:00;49.55;;;26.95;;
51288;SDS011;37372;52.294;5.152;2022-12-16T18:06:29;47.22;;;26.25;;
51288;SDS011;37372;52.294;5.152;2022-12-16T18:09:13;49.90;;;28.50;;
51288;SDS011;37372;52.294;5.152;2022-12-16T18:11:57;55.90;;;28.75;;
51288;SDS011;37372;52.294;5.152;2022-12-16T18:14:41;42.97;;;24.90;;